Time,TemperatureF,DewpointF,PressureIn,WindDirection,WindDirectionDegrees,WindSpeedMPH,WindSpeedGustMPH,Humidity,HourlyPrecipIn,Conditions,Clouds,dailyrainin,SoftwareType,DateUTC
2013-03-24 00:05:00,46.0,44.0,29.89,South,174,0.0,2.0,92,0.00,,,0.00,weatherlink.com 1.10,2013-03-24 04:05:00,
2013-03-24 00:20:00,46.0,44.0,29.91,South,171,0.0,1.0,92,0.00,,,0.00,weatherlink.com 1.10,2013-03-24 04:20:00,
2013-03-24 00:35:00,46.0,44.0,29.89,SSW,200,0.0,3.0,91,0.00,,,0.00,weatherlink.com 1.10,2013-03-24 04:35:00,
2013-03-24 00:50:00,46.0,44.0,29.91,SSW,200,0.0,2.0,91,0.00,,,0.00,weatherlink.com 1.10,2013-03-24 04:50:00,
2013-03-24 01:05:00,46.0,44.0,29.90,SSW,200,0.0,1.0,91,0.00,,,0.00,weatherlink.com 1.10,2013-03-24 05:05:00,
2013-03-24 01:20:00,46.0,44.0,29.89,SSW,195,0.0,1.0,91,0.00,,,0.00,weatherlink.com 1.10,2013-03-24 05:20:00,
2013-03-24 01:35:00,46.1,44.0,29.92,NE,54,2.0,3.0,91,0.00,,,0.00,weatherlink.com 1.10,2013-03-24 05:35:00,
2013-03-24 01:50:00,46.0,44.0,29.91,ENE,76,1.0,2.0,92,0.00,,,0.00,weatherlink.com 1.10,2013-03-24 05:50:00,
2013-03-24 02:05:00,45.7,44.0,29.89,East,101,1.0,2.0,94,0.03,,,0.03,weatherlink.com 1.10,2013-03-24 06:05:00,
2013-03-24 02:21:00,45.2,44.0,29.86,East,82,1.0,5.0,95,0.07,,,0.07,weatherlink.com 1.10,2013-03-24 06:21:00,
2013-03-24 02:36:00,45.0,44.0,29.87,ENE,72,1.0,3.0,95,0.10,,,0.10,weatherlink.com 1.10,2013-03-24 06:36:00,
2013-03-24 02:51:00,44.8,44.0,29.86,East,93,2.0,3.0,96,0.15,,,0.15,weatherlink.com 1.10,2013-03-24 06:51:00,
2013-03-24 03:21:00,44.7,44.0,29.83,East,81,0.0,2.0,96,0.19,,,0.26,weatherlink.com 1.10,2013-03-24 07:21:00,
2013-03-24 03:51:00,44.7,44.0,29.81,ENE,74,0.0,2.0,97,0.21,,,0.36,weatherlink.com 1.10,2013-03-24 07:51:00,
2013-03-24 04:21:00,44.7,44.0,29.79,NE,48,0.0,1.0,97,0.20,,,0.46,weatherlink.com 1.10,2013-03-24 08:21:00,
2013-03-24 04:36:00,44.8,44.0,29.80,NE,49,1.0,2.0,97,0.17,,,0.49,weatherlink.com 1.10,2013-03-24 08:36:00,
2013-03-24 04:51:00,44.8,44.0,29.79,ENE,75,0.0,2.0,97,0.16,,,0.53,weatherlink.com 1.10,2013-03-24 08:51:00,
2013-03-24 05:06:00,44.7,44.0,29.76,East,88,1.0,3.0,97,0.16,,,0.58,weatherlink.com 1.10,2013-03-24 09:06:00,
2013-03-24 05:21:00,44.5,44.0,29.74,East,97,2.0,3.0,97,0.11,,,0.58,weatherlink.com 1.10,2013-03-24 09:21:00,
2013-03-24 05:36:00,44.5,44.0,29.73,SSE,167,0.0,3.0,97,0.10,,,0.59,weatherlink.com 1.10,2013-03-24 09:36:00,
2013-03-24 05:51:00,44.4,44.0,29.70,ESE,116,2.0,3.0,97,0.07,,,0.60,weatherlink.com 1.10,2013-03-24 09:51:00,
2013-03-24 06:06:00,44.1,43.0,29.68,NNE,24,2.0,6.0,97,0.05,,,0.63,weatherlink.com 1.10,2013-03-24 10:06:00,
2013-03-24 06:21:00,44.1,43.0,29.71,NE,49,1.0,4.0,97,0.05,,,0.63,weatherlink.com 1.10,2013-03-24 10:21:00,
2013-03-24 06:36:00,44.1,43.0,29.65,NNE,23,2.0,6.0,97,0.09,,,0.68,weatherlink.com 1.10,2013-03-24 10:36:00,
2013-03-24 06:51:00,44.0,43.0,29.65,East,85,1.0,4.0,97,0.07,,,0.68,weatherlink.com 1.10,2013-03-24 10:51:00,
2013-03-24 07:06:00,43.9,43.0,29.63,ENE,77,2.0,8.0,97,0.05,,,0.68,weatherlink.com 1.10,2013-03-24 11:06:00,
2013-03-24 07:21:00,44.1,43.0,29.69,East,96,0.0,4.0,97,0.11,,,0.74,weatherlink.com 1.10,2013-03-24 11:21:00,
2013-03-24 07:36:00,44.1,43.0,29.75,NNW,344,3.0,6.0,97,0.20,,,0.88,weatherlink.com 1.10,2013-03-24 11:36:00,
2013-03-24 07:51:00,44.0,43.0,29.80,North,5,4.0,10.0,97,0.31,,,0.99,weatherlink.com 1.10,2013-03-24 11:51:00,
2013-03-24 08:06:00,43.7,43.0,29.75,NW,323,2.0,5.0,97,0.39,,,1.07,weatherlink.com 1.10,2013-03-24 12:06:00,
2013-03-24 08:21:00,43.7,43.0,29.73,East,85,2.0,5.0,97,0.33,,,1.08,weatherlink.com 1.10,2013-03-24 12:21:00,
2013-03-24 08:36:00,43.6,43.0,29.67,ENE,58,4.0,5.0,97,0.24,,,1.12,weatherlink.com 1.10,2013-03-24 12:36:00,
2013-03-24 08:51:00,43.6,43.0,29.67,East,90,1.0,3.0,97,0.14,,,1.14,weatherlink.com 1.10,2013-03-24 12:51:00,
2013-03-24 09:06:00,43.8,43.0,29.68,SE,130,2.0,5.0,97,0.07,,,1.14,weatherlink.com 1.10,2013-03-24 13:06:00,
2013-03-24 09:21:00,43.9,43.0,29.67,ESE,105,4.0,6.0,96,0.06,,,1.14,weatherlink.com 1.10,2013-03-24 13:21:00,
2013-03-24 09:36:00,43.9,43.0,29.68,ESE,121,1.0,4.0,96,0.02,,,1.14,weatherlink.com 1.10,2013-03-24 13:36:00,
2013-03-24 09:52:00,43.7,42.0,29.68,NE,49,3.0,4.0,95,0.00,,,1.14,weatherlink.com 1.10,2013-03-24 13:52:00,
2013-03-24 10:07:00,43.7,42.0,29.68,East,87,2.0,7.0,95,0.00,,,1.14,weatherlink.com 1.10,2013-03-24 14:07:00,
2013-03-24 10:21:00,43.3,42.0,29.68,ESE,123,1.0,4.0,95,0.01,,,1.15,weatherlink.com 1.10,2013-03-24 14:21:00,
2013-03-24 10:36:00,43.1,42.0,29.67,East,87,2.0,7.0,96,0.03,,,1.17,weatherlink.com 1.10,2013-03-24 14:36:00,
2013-03-24 10:51:00,42.9,42.0,29.67,East,88,2.0,3.0,96,0.04,,,1.18,weatherlink.com 1.10,2013-03-24 14:51:00,
2013-03-24 11:07:00,42.9,42.0,29.66,ENE,71,2.0,4.0,97,0.05,,,1.19,weatherlink.com 1.10,2013-03-24 15:07:00,
2013-03-24 11:22:00,42.9,42.0,29.67,ESE,112,1.0,3.0,96,0.04,,,1.20,weatherlink.com 1.10,2013-03-24 15:22:00,
2013-03-24 11:37:00,43.1,42.0,29.69,East,99,1.0,2.0,97,0.03,,,1.20,weatherlink.com 1.10,2013-03-24 15:37:00,
2013-03-24 11:52:00,43.3,43.0,29.69,East,86,2.0,3.0,97,0.03,,,1.21,weatherlink.com 1.10,2013-03-24 15:52:00,
2013-03-24 12:07:00,43.3,42.0,29.68,ENE,62,1.0,3.0,96,0.02,,,1.21,weatherlink.com 1.10,2013-03-24 16:07:00,
2013-03-24 12:22:00,43.4,43.0,29.67,NE,55,0.0,4.0,97,0.01,,,1.21,weatherlink.com 1.10,2013-03-24 16:22:00,
2013-03-24 12:37:00,43.4,42.0,29.69,East,80,1.0,3.0,96,0.01,,,1.21,weatherlink.com 1.10,2013-03-24 16:37:00,
2013-03-24 12:52:00,43.3,42.0,29.67,East,91,2.0,5.0,96,0.00,,,1.21,weatherlink.com 1.10,2013-03-24 16:52:00,
2013-03-24 13:07:00,43.5,42.0,29.66,ESE,105,0.0,3.0,95,0.00,,,1.21,weatherlink.com 1.10,2013-03-24 17:07:00,
2013-03-24 13:22:00,43.8,43.0,29.66,East,98,2.0,4.0,95,0.00,,,1.21,weatherlink.com 1.10,2013-03-24 17:22:00,
2013-03-24 13:37:00,44.1,43.0,29.65,ESE,118,1.0,4.0,95,0.00,,,1.21,weatherlink.com 1.10,2013-03-24 17:37:00,
2013-03-24 13:52:00,44.7,43.0,29.64,ESE,112,1.0,4.0,94,0.00,,,1.21,weatherlink.com 1.10,2013-03-24 17:52:00,
2013-03-24 14:07:00,45.1,44.0,29.64,ESE,107,1.0,4.0,94,0.00,,,1.21,weatherlink.com 1.10,2013-03-24 18:07:00,
2013-03-24 14:22:00,44.9,43.0,29.63,ESE,112,2.0,5.0,92,0.01,,,1.22,weatherlink.com 1.10,2013-03-24 18:22:00,
2013-03-24 14:37:00,45.6,43.0,29.62,SE,138,3.0,6.0,90,0.01,,,1.22,weatherlink.com 1.10,2013-03-24 18:37:00,
2013-03-24 14:52:00,45.7,42.0,29.62,SE,124,0.0,5.0,88,0.01,,,1.22,weatherlink.com 1.10,2013-03-24 18:52:00,
2013-03-24 15:07:00,45.7,42.0,29.61,ESE,119,0.0,4.0,87,0.01,,,1.22,weatherlink.com 1.10,2013-03-24 19:07:00,
2013-03-24 15:22:00,45.4,42.0,29.60,ESE,104,0.0,7.0,88,0.00,,,1.22,weatherlink.com 1.10,2013-03-24 19:22:00,
2013-03-24 15:37:00,45.0,42.0,29.59,ESE,115,0.0,3.0,90,0.00,,,1.22,weatherlink.com 1.10,2013-03-24 19:37:00,
2013-03-24 15:52:00,45.4,42.0,29.58,SE,145,0.0,5.0,89,0.00,,,1.22,weatherlink.com 1.10,2013-03-24 19:52:00,
2013-03-24 16:07:00,45.3,42.0,29.58,South,169,1.0,7.0,89,0.00,,,1.22,weatherlink.com 1.10,2013-03-24 20:07:00,
2013-03-24 16:22:00,45.4,42.0,29.59,ESE,118,1.0,5.0,89,0.00,,,1.22,weatherlink.com 1.10,2013-03-24 20:22:00,
2013-03-24 16:37:00,45.2,42.0,29.60,South,188,1.0,6.0,88,0.00,,,1.22,weatherlink.com 1.10,2013-03-24 20:37:00,
2013-03-24 16:52:00,45.0,42.0,29.60,SE,138,0.0,2.0,88,0.00,,,1.22,weatherlink.com 1.10,2013-03-24 20:52:00,
2013-03-24 17:07:00,44.8,42.0,29.59,SSW,202,0.0,4.0,88,0.00,,,1.22,weatherlink.com 1.10,2013-03-24 21:07:00,
2013-03-24 17:22:00,44.9,42.0,29.59,SE,128,1.0,2.0,88,0.00,,,1.22,weatherlink.com 1.10,2013-03-24 21:22:00,
2013-03-24 17:37:00,44.7,41.0,29.59,South,179,2.0,4.0,88,0.00,,,1.22,weatherlink.com 1.10,2013-03-24 21:37:00,
2013-03-24 17:52:00,44.8,42.0,29.59,South,180,0.0,1.0,89,0.00,,,1.22,weatherlink.com 1.10,2013-03-24 21:52:00,
2013-03-24 18:07:00,44.7,42.0,29.59,South,188,0.0,2.0,89,0.00,,,1.22,weatherlink.com 1.10,2013-03-24 22:07:00,
2013-03-24 18:22:00,44.5,42.0,29.58,SSW,196,2.0,5.0,89,0.00,,,1.22,weatherlink.com 1.10,2013-03-24 22:22:00,
2013-03-24 18:37:00,44.3,41.0,29.59,SW,232,1.0,4.0,88,0.00,,,1.22,weatherlink.com 1.10,2013-03-24 22:37:00,
2013-03-24 18:52:00,44.3,41.0,29.59,South,184,0.0,3.0,88,0.00,,,1.22,weatherlink.com 1.10,2013-03-24 22:52:00,
2013-03-24 19:07:00,44.2,41.0,29.59,SSW,196,3.0,3.0,88,0.00,,,1.22,weatherlink.com 1.10,2013-03-24 23:07:00,
2013-03-24 19:22:00,44.1,41.0,29.57,SSW,203,1.0,5.0,88,0.00,,,1.22,weatherlink.com 1.10,2013-03-24 23:22:00,
2013-03-24 19:37:00,44.0,41.0,29.59,SSW,200,2.0,4.0,89,0.00,,,1.22,weatherlink.com 1.10,2013-03-24 23:37:00,
2013-03-24 19:52:00,43.8,41.0,29.58,SSW,207,2.0,-999.0,89,14.97,,,1.22,weatherlink.com 1.10,2013-03-24 23:52:00,
2013-03-24 20:07:00,43.8,41.0,29.59,SSW,198,2.0,3.0,89,0.00,,,1.22,weatherlink.com 1.10,2013-03-25 00:07:00,
2013-03-24 20:22:00,43.6,41.0,29.59,SSW,210,0.0,4.0,90,0.00,,,1.22,weatherlink.com 1.10,2013-03-25 00:22:00,
2013-03-24 20:37:00,43.6,41.0,29.60,NW,315,0.0,3.0,90,0.00,,,1.22,weatherlink.com 1.10,2013-03-25 00:37:00,
2013-03-24 20:52:00,43.5,41.0,29.59,SW,218,2.0,3.0,91,0.00,,,1.22,weatherlink.com 1.10,2013-03-25 00:52:00,
2013-03-24 21:07:00,43.2,41.0,29.59,SW,215,0.0,1.0,93,0.01,,,1.23,weatherlink.com 1.10,2013-03-25 01:07:00,
2013-03-24 21:22:00,42.9,41.0,29.60,SSW,212,0.0,1.0,94,0.03,,,1.25,weatherlink.com 1.10,2013-03-25 01:22:00,
2013-03-24 21:37:00,42.7,41.0,29.60,SSE,162,0.0,3.0,95,0.04,,,1.26,weatherlink.com 1.10,2013-03-25 01:37:00,
2013-03-24 21:52:00,42.5,41.0,29.61,SSW,209,0.0,3.0,95,0.04,,,1.26,weatherlink.com 1.10,2013-03-25 01:52:00,
2013-03-24 22:07:00,42.5,42.0,29.61,SSW,200,1.0,3.0,96,0.04,,,1.27,weatherlink.com 1.10,2013-03-25 02:07:00,
2013-03-24 22:22:00,42.4,41.0,29.61,SSW,200,0.0,2.0,96,0.02,,,1.27,weatherlink.com 1.10,2013-03-25 02:22:00,
2013-03-24 22:37:00,42.3,41.0,29.61,SSW,201,2.0,3.0,96,0.01,,,1.27,weatherlink.com 1.10,2013-03-25 02:37:00,
2013-03-24 22:52:00,42.3,41.0,29.61,SSW,212,2.0,6.0,96,0.01,,,1.27,weatherlink.com 1.10,2013-03-25 02:52:00,
2013-03-24 23:07:00,42.2,41.0,29.60,NE,36,0.0,3.0,96,0.00,,,1.27,weatherlink.com 1.10,2013-03-25 03:07:00,
2013-03-24 23:22:00,42.2,41.0,29.59,SW,219,1.0,4.0,96,0.00,,,1.27,weatherlink.com 1.10,2013-03-25 03:22:00,
2013-03-24 23:37:00,42.1,41.0,29.59,SSW,209,1.0,3.0,96,0.00,,,1.27,weatherlink.com 1.10,2013-03-25 03:37:00,
2013-03-24 23:52:00,42.1,41.0,29.59,WSW,237,2.0,3.0,96,0.00,,,1.27,weatherlink.com 1.10,2013-03-25 03:52:00,